Terminal Aerodrome Forecast
Issued by NWS Wilmington, OH

Home | Current Version | Previous Version | Text Only | Print | Product List | Glossary On
Versions: 1 2 3 4 5 6 7 8 9 10 11 12 13 14 15 16 17 18
000
FTUS41 KILN 300541
TAFDAY
TAF
KDAY 300541Z 3006/3106 10012KT P6SM BKN150
     FM301100 14012KT P6SM VCSH BKN050 OVC100
     FM301600 18014G24KT P6SM VCSH BKN040
     FM310100 19012G20KT 5SM -TSRA BR OVC035CB
     FM310500 18010KT 5SM -SHRA BR VCTS OVC025CB=

USA.gov is the U.S. government's official web portal to all federal, state and local government web resources and services.